Time;durP1;ratioP1;P1;durP2;ratioP2;P2;SDS_P1;SDS_P2;PMS_P1;PMS_P2;Temp;Humidity;BMP_temperature;BMP_pressure;BME280_temperature;BME280_humidity;BME280_pressure;Samples;Min_cycle;Max_cycle;Signal;HPM_P1;HPM_P2
2021/06/26 00:00:55;;;;;;;18.30;14.50;;;;;;;19.36;72.14;96158.63;5054226;28;20054;-89
2021/06/26 00:03:23;;;;;;;23.50;16.25;;;;;;;19.36;72.14;96158.63;5052019;28;20028;-88
2021/06/26 00:05:49;;;;;;;18.10;15.75;;;;;;;19.36;72.14;96158.63;5053350;28;20381;-88
2021/06/26 00:08:15;;;;;;;19.20;15.93;;;;;;;19.36;72.14;96158.63;5054332;28;20056;-88
2021/06/26 00:10:42;;;;;;;19.00;15.65;;;;;;;19.36;72.14;96158.63;5053283;28;20021;-88
2021/06/26 00:13:08;;;;;;;19.85;16.83;;;;;;;19.36;72.14;96158.63;5051789;28;20031;-88
2021/06/26 00:15:33;;;;;;;20.23;16.92;;;;;;;-145.61;100.00;68426.72;5054252;28;20116;-89
2021/06/26 00:17:59;;;;;;;18.23;16.27;;;;;;;18.48;74.42;96101.34;5052809;28;20025;-89
2021/06/26 00:20:25;;;;;;;17.98;16.05;;;;;;;18.48;74.42;96101.34;5053230;28;20029;-89
2021/06/26 00:22:50;;;;;;;19.80;17.08;;;;;;;18.48;74.42;96101.34;5053652;28;20107;-89
2021/06/26 00:25:16;;;;;;;18.02;16.00;;;;;;;18.48;74.42;96101.34;5053112;28;20040;-89
2021/06/26 00:27:42;;;;;;;18.65;15.88;;;;;;;18.48;74.42;96101.34;5053078;28;20024;-89
2021/06/26 00:30:08;;;;;;;18.98;16.42;;;;;;;18.48;74.42;96101.34;5052318;28;20107;-89
2021/06/26 00:32:34;;;;;;;19.58;15.68;;;;;;;18.48;74.42;96101.34;5052764;28;20045;-88
2021/06/26 00:35:00;;;;;;;19.45;16.10;;;;;;;18.48;74.42;96101.34;5053032;28;20035;-89
2021/06/26 00:37:25;;;;;;;21.13;16.38;;;;;;;18.48;74.42;96101.34;5052985;28;20056;-88
2021/06/26 00:39:51;;;;;;;19.55;16.13;;;;;;;18.49;74.53;96102.88;5052423;28;20439;-89
2021/06/26 00:42:16;;;;;;;18.70;16.70;;;;;;;18.70;74.96;96150.66;5052773;28;20100;-89
2021/06/26 00:44:42;;;;;;;17.45;15.65;;;;;;;18.70;74.96;96150.66;5052871;28;20053;-89
2021/06/26 00:47:11;;;;;;;18.17;15.90;;;;;;;18.70;74.96;96150.66;5053242;28;20067;-88
2021/06/26 00:49:38;;;;;;;21.30;17.07;;;;;;;18.70;74.96;96150.66;5056179;28;20466;-88
2021/06/26 00:52:16;;;;;;;20.10;16.40;;;;;;;18.70;74.96;96150.66;5056851;28;20116;-88
2021/06/26 00:54:42;;;;;;;18.17;15.68;;;;;;;18.70;74.96;96150.66;5056415;28;20083;-88
2021/06/26 00:57:07;;;;;;;20.00;15.93;;;;;;;18.70;74.96;96150.66;5058011;28;20684;-88
2021/06/26 00:59:33;;;;;;;17.80;15.90;;;;;;;18.70;74.96;96150.66;5057880;28;20071;-88
2021/06/26 01:01:59;;;;;;;17.75;15.70;;;;;;;18.70;74.96;96150.66;5040675;28;20021;-88
2021/06/26 01:04:25;;;;;;;18.27;16.33;;;;;;;18.70;74.96;96150.66;5035257;28;20444;-89
2021/06/26 01:06:50;;;;;;;16.95;15.13;;;;;;;18.70;74.96;96150.66;5037816;28;20460;-88
2021/06/26 01:09:16;;;;;;;19.33;17.25;;;;;;;-145.61;100.00;68426.72;5037847;28;20052;-88
2021/06/26 01:11:42;;;;;;;19.98;17.88;;;;;;;18.70;74.96;96150.66;5036448;28;20060;-89
2021/06/26 01:14:08;;;;;;;19.95;17.35;;;;;;;18.70;74.96;96150.66;5036440;28;20417;-88
2021/06/26 01:16:33;;;;;;;21.73;19.33;;;;;;;-145.61;100.00;68426.72;5036656;28;20026;-89
2021/06/26 01:18:59;;;;;;;21.13;18.85;;;;;;;-145.61;100.00;68426.72;5036596;28;20052;-88
2021/06/26 01:21:25;;;;;;;20.50;18.27;;;;;;;18.70;74.96;96150.66;5035244;28;20041;-89
2021/06/26 01:23:52;;;;;;;20.30;18.23;;;;;;;18.70;74.96;96150.66;5037011;28;20024;-89
2021/06/26 01:26:19;;;;;;;21.92;19.00;;;;;;;18.70;74.96;96150.66;5036869;28;20083;-88
2021/06/26 01:28:44;;;;;;;21.73;19.38;;;;;;;-145.61;100.00;68426.72;5036295;28;20052;-88
2021/06/26 01:31:10;;;;;;;22.05;19.75;;;;;;;18.70;74.96;96150.66;5034548;28;20127;-88
2021/06/26 01:33:36;;;;;;;23.35;19.95;;;;;;;-145.61;100.00;68426.72;5037096;28;20035;-88
2021/06/26 01:36:02;;;;;;;22.25;19.50;;;;;;;-145.61;100.00;68426.72;5036791;28;20056;-88
2021/06/26 01:38:28;;;;;;;23.30;20.58;;;;;;;18.70;74.96;96150.66;5052708;28;20412;-88
2021/06/26 01:40:53;;;;;;;24.13;21.13;;;;;;;-145.61;100.00;68426.72;5055107;28;20064;-88
2021/06/26 01:43:19;;;;;;;23.10;20.65;;;;;;;-145.61;100.00;68426.72;5057058;28;20032;-88
2021/06/26 01:45:45;;;;;;;23.73;20.55;;;;;;;-145.61;100.00;68426.72;5055966;28;20418;-88
2021/06/26 01:48:10;;;;;;;21.75;19.48;;;;;;;18.82;74.36;96119.00;5055508;28;20040;-88
2021/06/26 01:50:37;;;;;;;22.63;20.30;;;;;;;18.82;74.36;96119.00;5055825;28;20036;-88
2021/06/26 01:53:03;;;;;;;22.98;19.58;;;;;;;-145.61;100.00;68426.72;5056701;28;20029;-88
2021/06/26 01:55:29;;;;;;;22.65;19.90;;;;;;;18.82;74.36;96119.00;5055812;28;20056;-88
2021/06/26 01:57:56;;;;;;;26.92;21.38;;;;;;;-145.61;100.00;68426.72;5054139;28;20420;-88
2021/06/26 02:00:23;;;;;;;22.77;20.38;;;;;;;-145.61;100.00;68426.72;5054797;28;20025;-88
2021/06/26 02:02:50;;;;;;;21.63;19.33;;;;;;;-145.61;100.00;68426.72;5055718;28;20029;-88
2021/06/26 02:05:17;;;;;;;22.17;19.77;;;;;;;18.82;74.36;96119.00;5054624;28;20021;-88
2021/06/26 02:07:47;;;;;;;22.40;20.00;;;;;;;-145.61;100.00;68426.72;5055379;28;20071;-88
2021/06/26 02:10:13;;;;;;;22.13;19.73;;;;;;;18.82;74.36;96119.00;5055597;28;20044;-88
2021/06/26 02:12:40;;;;;;;23.08;19.98;;;;;;;18.82;74.36;96119.00;5056373;28;20029;-88
2021/06/26 02:15:06;;;;;;;22.48;19.90;;;;;;;18.82;74.36;96119.00;5054070;28;20032;-88
2021/06/26 02:17:32;;;;;;;24.73;20.67;;;;;;;18.82;74.36;96119.00;5055982;28;20025;-88
2021/06/26 02:19:58;;;;;;;22.67;20.25;;;;;;;-145.61;100.00;68426.72;5056375;28;20474;-88
2021/06/26 02:22:24;;;;;;;22.15;19.48;;;;;;;18.82;74.36;96119.00;5054014;28;20328;-88
2021/06/26 02:24:50;;;;;;;23.73;20.45;;;;;;;-145.61;100.00;68426.72;5056323;28;20068;-88
2021/06/26 02:27:16;;;;;;;23.02;19.95;;;;;;;-145.61;100.00;68426.72;5055200;28;20051;-88
2021/06/26 02:29:41;;;;;;;23.50;20.55;;;;;;;-145.61;100.00;68426.72;5056210;28;20025;-88
2021/06/26 02:32:07;;;;;;;23.10;19.58;;;;;;;18.82;74.36;96119.00;5054229;28;20052;-88
2021/06/26 02:34:33;;;;;;;24.13;19.63;;;;;;;-145.61;100.00;68426.72;5055099;28;20025;-89
2021/06/26 02:36:58;;;;;;;26.45;20.58;;;;;;;-145.61;100.00;68426.72;5055967;28;20040;-88
2021/06/26 02:39:24;;;;;;;22.58;19.60;;;;;;;-145.61;100.00;68426.72;5054891;28;20171;-88
2021/06/26 02:41:50;;;;;;;23.67;20.55;;;;;;;-145.61;100.00;68426.72;5054530;28;20025;-89
2021/06/26 02:44:16;;;;;;;23.80;19.92;;;;;;;-145.61;100.00;68426.72;5054906;28;20025;-88
2021/06/26 02:46:42;;;;;;;25.75;20.83;;;;;;;-145.61;100.00;68426.72;5054945;28;20115;-89
2021/06/26 02:49:07;;;;;;;24.55;19.08;;;;;;;18.82;74.36;96119.00;5054513;28;20021;-89
2021/06/26 02:51:33;;;;;;;25.02;19.60;;;;;;;-145.61;100.00;68426.72;5054351;28;20123;-89
2021/06/26 02:53:58;;;;;;;22.67;19.75;;;;;;;18.82;74.36;96119.00;5055679;28;20025;-88
2021/06/26 02:56:24;;;;;;;25.00;21.10;;;;;;;-145.61;100.00;68426.72;5055711;28;20159;-88
2021/06/26 02:58:49;;;;;;;24.00;20.35;;;;;;;18.82;74.36;96119.00;5053053;28;20036;-88
2021/06/26 03:01:15;;;;;;;25.15;20.40;;;;;;;18.82;74.36;96119.00;5055717;28;20104;-88
2021/06/26 03:03:40;;;;;;;24.83;20.08;;;;;;;-145.61;100.00;68426.72;5054591;28;20025;-88
2021/06/26 03:06:06;;;;;;;22.50;19.10;;;;;;;-145.61;100.00;68426.72;5054609;28;20032;-88
2021/06/26 03:08:32;;;;;;;23.40;20.20;;;;;;;-145.61;100.00;68426.72;5053003;28;20064;-88
2021/06/26 03:10:57;;;;;;;22.63;19.85;;;;;;;18.82;74.36;96119.00;5054440;28;20111;-88
2021/06/26 03:13:23;;;;;;;23.33;20.10;;;;;;;18.82;74.36;96119.00;5053682;28;20037;-89
2021/06/26 03:15:49;;;;;;;23.65;20.15;;;;;;;18.82;74.36;96119.00;5055271;28;20033;-88
2021/06/26 03:18:15;;;;;;;24.27;20.77;;;;;;;18.82;74.36;96119.00;5053341;28;20025;-89
2021/06/26 03:20:40;;;;;;;22.13;19.75;;;;;;;-145.61;100.00;68426.72;5055372;28;20316;-88
2021/06/26 03:23:07;;;;;;;23.30;20.42;;;;;;;18.82;74.36;96119.00;5055256;28;20401;-89
2021/06/26 03:25:33;;;;;;;26.73;21.75;;;;;;;18.82;74.36;96119.00;5053679;28;20025;-89
2021/06/26 03:27:59;;;;;;;23.48;20.77;;;;;;;18.82;74.36;96119.00;5054143;28;20115;-89
2021/06/26 03:30:25;;;;;;;23.48;21.00;;;;;;;-145.61;100.00;68426.72;5054228;28;20031;-89
2021/06/26 03:32:50;;;;;;;25.70;20.70;;;;;;;-145.61;100.00;68426.72;5054073;28;20478;-89
2021/06/26 03:35:16;;;;;;;23.60;21.10;;;;;;;-145.61;100.00;68426.72;5053537;28;20024;-89
2021/06/26 03:37:42;;;;;;;26.15;22.67;;;;;;;-145.61;100.00;68426.72;5054686;28;20108;-89
2021/06/26 03:40:09;;;;;;;26.30;21.83;;;;;;;-145.61;100.00;68426.72;5053994;28;20031;-89
2021/06/26 03:42:35;;;;;;;28.05;23.00;;;;;;;18.82;74.36;96119.00;5053177;28;20025;-90
2021/06/26 03:45:01;;;;;;;25.80;22.05;;;;;;;-145.61;100.00;68426.72;5065196;28;20220;-89
2021/06/26 03:47:28;;;;;;;25.00;22.40;;;;;;;-145.61;100.00;68426.72;5074780;28;20046;-89
2021/06/26 03:49:54;;;;;;;24.75;22.10;;;;;;;-145.61;100.00;68426.72;5073531;28;20112;-89
2021/06/26 03:52:20;;;;;;;23.85;21.20;;;;;;;-145.61;100.00;68426.72;5071836;28;20028;-89
2021/06/26 03:54:46;;;;;;;24.30;21.70;;;;;;;-145.61;100.00;68426.72;5073487;28;20081;-89
2021/06/26 03:57:11;;;;;;;23.45;20.95;;;;;;;-145.61;100.00;68426.72;5073497;28;20382;-88
2021/06/26 03:59:37;;;;;;;24.35;21.05;;;;;;;19.02;73.29;96167.31;5073443;28;20029;-89
2021/06/26 04:02:06;;;;;;;22.92;19.75;;;;;;;19.02;73.29;96167.31;5072881;28;20089;-89
2021/06/26 04:04:34;;;;;;;23.27;20.23;;;;;;;19.02;73.29;96167.31;5073376;28;20029;-89
2021/06/26 04:06:59;;;;;;;24.60;21.33;;;;;;;19.02;73.29;96167.31;5073309;28;20078;-89
2021/06/26 04:09:25;;;;;;;25.38;21.65;;;;;;;19.02;73.29;96167.31;5072751;28;20028;-89
2021/06/26 04:11:51;;;;;;;24.92;22.25;;;;;;;19.02;73.29;96167.31;5073187;28;20029;-89
2021/06/26 04:14:16;;;;;;;27.30;23.02;;;;;;;19.02;73.29;96167.31;5074455;28;20032;-89
2021/06/26 04:16:42;;;;;;;27.83;23.25;;;;;;;19.02;73.29;96167.31;5073246;28;20329;-89
2021/06/26 04:19:08;;;;;;;26.05;23.27;;;;;;;19.02;73.29;96167.31;5072672;28;20035;-89
2021/06/26 04:21:33;;;;;;;25.33;22.38;;;;;;;19.02;73.29;96167.31;5074173;28;20054;-89
2021/06/26 04:23:59;;;;;;;26.23;22.95;;;;;;;19.02;73.29;96167.31;5073780;28;20324;-89
2021/06/26 04:26:25;;;;;;;26.88;24.05;;;;;;;19.02;73.29;96167.31;5072987;28;20032;-88
2021/06/26 04:28:51;;;;;;;25.80;23.10;;;;;;;18.72;71.13;96196.91;5072012;28;20424;-89
2021/06/26 04:31:17;;;;;;;26.25;23.55;;;;;;;18.72;71.13;96196.91;5062299;28;20067;-89
2021/06/26 04:33:44;;;;;;;25.15;22.60;;;;;;;-145.61;100.00;68426.72;5053319;28;20340;-89
2021/06/26 04:36:13;;;;;;;25.55;23.05;;;;;;;18.72;71.13;96196.91;5052245;28;20033;-88
2021/06/26 04:38:39;;;;;;;23.77;21.38;;;;;;;19.07;70.52;96224.28;5053130;28;20024;-88
2021/06/26 04:41:05;;;;;;;23.05;20.75;;;;;;;19.07;70.52;96224.28;5053774;28;20079;-89
2021/06/26 04:43:30;;;;;;;23.35;21.00;;;;;;;19.07;70.52;96224.28;5053997;28;20013;-88
2021/06/26 04:45:56;;;;;;;25.42;20.70;;;;;;;19.07;70.52;96224.28;5051180;28;20033;-88
2021/06/26 04:48:25;;;;;;;22.73;20.23;;;;;;;19.07;70.52;96224.28;5053213;28;20032;-88
2021/06/26 04:50:50;;;;;;;23.65;21.17;;;;;;;19.07;70.52;96224.28;5052962;28;20021;-89
2021/06/26 04:53:16;;;;;;;23.58;21.17;;;;;;;-145.61;100.00;68426.72;5051340;28;20025;-89
2021/06/26 04:55:51;;;;;;;22.80;20.48;;;;;;;19.04;71.72;96181.28;5052379;28;20033;-89
2021/06/26 04:58:18;;;;;;;22.38;19.85;;;;;;;19.04;71.72;96181.28;5052575;28;20029;-91
2021/06/26 05:00:44;;;;;;;21.60;19.35;;;;;;;19.04;71.72;96181.28;5052642;28;20021;-90
2021/06/26 05:03:09;;;;;;;22.05;19.75;;;;;;;19.04;71.72;96181.28;5053534;28;20021;-90
2021/06/26 05:05:35;;;;;;;21.63;19.42;;;;;;;19.04;71.72;96181.28;5053215;28;20079;-90
2021/06/26 05:08:01;;;;;;;21.30;18.45;;;;;;;-145.61;100.00;68426.72;5053379;28;20116;-90
2021/06/26 05:10:27;;;;;;;21.05;18.90;;;;;;;18.84;69.68;96141.22;5051751;28;20048;-90
2021/06/26 05:12:52;;;;;;;20.33;18.25;;;;;;;18.84;69.68;96141.22;5053026;28;20055;-90
2021/06/26 05:15:18;;;;;;;20.98;18.98;;;;;;;18.97;69.10;96153.63;5053109;28;20020;-91
2021/06/26 05:17:43;;;;;;;21.05;18.92;;;;;;;18.97;69.10;96153.63;5053827;28;20029;-91
2021/06/26 05:20:14;;;;;;;20.98;18.90;;;;;;;18.94;68.28;96160.16;5052460;28;20436;-90
2021/06/26 05:22:39;;;;;;;20.20;18.20;;;;;;;19.07;69.14;96180.25;5053701;28;20029;-91
2021/06/26 05:25:06;;;;;;;21.20;19.00;;;;;;;19.06;68.47;96189.00;5053730;28;20035;-91
2021/06/26 05:27:31;;;;;;;20.70;18.73;;;;;;;18.93;68.68;96172.41;5052184;28;20036;-91
2021/06/26 05:29:57;;;;;;;20.92;18.88;;;;;;;19.14;67.79;96198.19;5052820;28;20138;-90
2021/06/26 05:32:23;;;;;;;20.20;18.15;;;;;;;19.40;68.49;96219.66;5052527;28;20111;-91
2021/06/26 05:34:48;;;;;;;21.42;19.23;;;;;;;18.83;67.83;96156.25;5052952;28;20036;-90
2021/06/26 05:37:14;;;;;;;20.40;18.50;;;;;;;18.98;68.94;96166.84;5056144;28;20028;-90
2021/06/26 05:39:39;;;;;;;19.38;17.40;;;;;;;19.08;67.87;96164.50;5056756;28;20416;-90
2021/06/26 05:42:05;;;;;;;19.13;17.40;;;;;;;19.49;68.80;96226.78;5056707;28;20067;-90
2021/06/26 05:44:30;;;;;;;19.75;17.73;;;;;;;19.50;68.01;96217.28;5057162;28;20481;-92
2021/06/26 05:46:56;;;;;;;18.77;16.88;;;;;;;19.26;68.71;96168.50;5055955;28;20021;-90
2021/06/26 05:49:21;;;;;;;19.80;17.80;;;;;;;19.41;68.88;96199.09;5058792;28;20021;-91
2021/06/26 05:51:47;;;;;;;19.20;17.40;;;;;;;19.24;67.96;96179.31;5060510;28;20036;-91
2021/06/26 05:54:12;;;;;;;17.52;15.82;;;;;;;19.10;67.79;96150.94;5054218;28;20020;-90
2021/06/26 05:56:38;;;;;;;17.95;16.25;;;;;;;19.45;67.90;96176.78;5055934;28;20094;-90
2021/06/26 05:59:04;;;;;;;16.55;15.05;;;;;;;19.57;67.30;96180.88;5056183;28;20033;-90
2021/06/26 06:01:29;;;;;;;17.90;16.00;;;;;;;19.78;66.69;96211.41;5056110;28;20033;-90
2021/06/26 06:03:55;;;;;;;16.30;14.70;;;;;;;19.70;66.56;96193.97;5056087;28;20013;-91
2021/06/26 06:06:21;;;;;;;16.35;14.75;;;;;;;19.64;65.94;96194.06;5055580;28;20025;-90
2021/06/26 06:08:46;;;;;;;15.10;13.70;;;;;;;19.58;65.55;96174.09;5055553;28;20118;-91
2021/06/26 06:11:12;;;;;;;15.00;13.60;;;;;;;19.86;66.08;96199.25;5056080;28;20020;-90
2021/06/26 06:13:37;;;;;;;15.57;14.13;;;;;;;19.64;66.02;96169.28;5054748;28;20413;-90
2021/06/26 06:16:03;;;;;;;15.60;14.13;;;;;;;20.11;66.80;96232.94;5055778;28;20028;-90
2021/06/26 06:18:28;;;;;;;16.38;14.88;;;;;;;19.69;66.50;96181.47;5055791;28;20115;-89
2021/06/26 06:20:54;;;;;;;16.45;14.73;;;;;;;19.69;66.76;96179.47;5055086;28;20421;-91
2021/06/26 06:23:19;;;;;;;15.90;14.30;;;;;;;19.78;67.28;96186.63;5055295;28;20029;-91
2021/06/26 06:25:45;;;;;;;14.15;12.75;;;;;;;19.82;65.04;96200.84;5056191;28;20025;-89
2021/06/26 06:28:10;;;;;;;14.68;13.10;;;;;;;19.75;66.55;96199.41;5055350;28;20021;-89
2021/06/26 06:30:36;;;;;;;15.13;13.48;;;;;;;19.68;66.98;96185.50;5038920;28;20029;-90
2021/06/26 06:33:06;;;;;;;16.15;14.45;;;;;;;19.89;64.68;96214.00;5038756;28;20045;-88
2021/06/26 06:35:32;;;;;;;14.77;13.18;;;;;;;20.07;66.77;96213.22;5054785;28;20029;-89
2021/06/26 06:37:58;;;;;;;14.40;12.90;;;;;;;19.88;65.40;96144.38;5051074;28;20037;-90
2021/06/26 06:40:24;;;;;;;14.40;12.88;;;;;;;20.62;64.45;96230.16;5033665;28;20413;-89
2021/06/26 06:42:49;;;;;;;14.13;12.73;;;;;;;20.64;62.96;96221.34;5054256;28;20106;-89
2021/06/26 06:45:16;;;;;;;13.88;12.43;;;;;;;20.73;64.89;96209.19;5055260;28;20068;-92
2021/06/26 06:47:42;;;;;;;13.30;12.00;;;;;;;20.59;61.15;96208.41;5055114;28;20032;-91
2021/06/26 06:50:09;;;;;;;13.02;11.88;;;;;;;20.61;60.74;96203.84;5056433;28;20024;-90
2021/06/26 06:52:35;;;;;;;13.15;11.85;;;;;;;20.59;61.90;96181.56;5056165;28;20104;-91
2021/06/26 06:55:01;;;;;;;12.43;11.15;;;;;;;20.75;60.56;96193.56;5056854;28;20033;-91
2021/06/26 06:57:27;;;;;;;12.77;11.45;;;;;;;21.29;60.54;96225.41;5055294;28;20083;-90
2021/06/26 06:59:53;;;;;;;13.23;11.90;;;;;;;21.15;58.20;96230.22;5056527;28;20078;-92
2021/06/26 07:02:19;;;;;;;12.45;11.20;;;;;;;20.60;59.21;96132.66;5056495;28;20459;-91
2021/06/26 07:04:46;;;;;;;9.70;8.80;;;;;;;21.44;60.28;96222.13;5056255;28;20028;-91
2021/06/26 07:07:11;;;;;;;8.68;7.82;;;;;;;21.56;59.12;96239.22;5054546;28;20025;-90
2021/06/26 07:09:37;;;;;;;8.20;7.25;;;;;;;21.80;59.04;96227.91;5055015;28;20375;-91
2021/06/26 07:12:03;;;;;;;8.25;7.50;;;;;;;21.57;58.97;96171.63;5055380;28;20029;-91
2021/06/26 07:14:28;;;;;;;9.07;8.25;;;;;;;21.97;57.90;96227.53;5054501;28;20420;-91
2021/06/26 07:16:54;;;;;;;8.57;7.78;;;;;;;21.78;56.36;96210.34;5054927;28;20120;-91
2021/06/26 07:19:19;;;;;;;7.25;6.55;;;;;;;21.72;57.95;96204.94;5055259;28;20051;-90
2021/06/26 07:21:46;;;;;;;4.90;4.18;;;;;;;21.77;57.35;96197.81;5055011;28;20078;-91
2021/06/26 07:24:12;;;;;;;3.88;3.58;;;;;;;21.93;56.27;96218.81;5053832;28;20021;-90
2021/06/26 07:26:38;;;;;;;3.22;2.90;;;;;;;22.09;55.92;96244.59;5055076;28;20031;-91
2021/06/26 07:29:05;;;;;;;2.90;2.70;;;;;;;22.24;55.54;96247.53;5055022;28;20029;-91
2021/06/26 07:31:31;;;;;;;2.47;2.28;;;;;;;21.90;54.28;96226.16;5055190;28;20049;-91
2021/06/26 07:33:57;;;;;;;2.60;2.40;;;;;;;21.57;55.53;96210.31;5054780;28;20025;-91
2021/06/26 07:36:23;;;;;;;2.80;2.50;;;;;;;21.92;56.88;96220.84;5054411;28;20462;-91
2021/06/26 07:38:49;;;;;;;4.63;2.75;;;;;;;21.96;55.14;96214.97;5055282;28;20029;-91
2021/06/26 07:41:15;;;;;;;4.65;3.30;;;;;;;22.20;52.75;96234.03;5053449;28;20476;-91
2021/06/26 07:43:41;;;;;;;3.50;3.20;;;;;;;22.32;53.76;96242.84;5053893;28;20028;-90
2021/06/26 07:46:07;;;;;;;3.45;3.10;;;;;;;22.34;52.01;96220.91;5053419;28;20025;-90
2021/06/26 07:48:33;;;;;;;3.65;3.28;;;;;;;22.44;51.71;96232.97;5054046;28;20310;-91
2021/06/26 07:50:58;;;;;;;2.83;2.63;;;;;;;22.18;51.81;96184.06;5053383;28;20025;-91
2021/06/26 07:53:24;;;;;;;3.53;2.53;;;;;;;22.57;53.45;96187.16;5054716;28;20032;-91
2021/06/26 07:55:53;;;;;;;2.90;2.70;;;;;;;22.90;52.88;96205.66;5055198;28;20067;-91
2021/06/26 07:58:26;;;;;;;2.80;2.60;;;;;;;23.20;52.35;96232.81;5052182;28;20033;-90
2021/06/26 08:00:53;;;;;;;2.75;2.55;;;;;;;23.03;52.20;96242.84;5053645;28;20086;-90
2021/06/26 08:03:19;;;;;;;5.68;2.97;;;;;;;22.97;52.45;96215.31;5053695;28;20017;-90
2021/06/26 08:05:49;;;;;;;3.92;2.97;;;;;;;23.08;52.78;96241.97;5054322;28;20025;-90
2021/06/26 08:08:15;;;;;;;3.22;2.92;;;;;;;22.93;52.95;96223.22;5054627;28;20025;-91
2021/06/26 08:10:41;;;;;;;4.70;3.30;;;;;;;22.64;53.69;96212.13;5053722;28;20032;-91
2021/06/26 08:13:18;;;;;;;4.55;3.53;;;;;;;22.54;53.54;96255.38;5053514;28;20055;-91
2021/06/26 08:15:46;;;;;;;4.38;3.47;;;;;;;22.57;54.36;96221.09;5054140;28;20033;-90
2021/06/26 08:18:13;;;;;;;3.60;3.30;;;;;;;22.68;52.88;96214.53;5053847;28;20328;-90
2021/06/26 08:20:39;;;;;;;4.13;3.58;;;;;;;22.65;53.15;96216.38;5054075;28;20028;-91
2021/06/26 08:23:05;;;;;;;4.45;4.05;;;;;;;22.28;55.31;96159.47;5052573;28;20031;-90
2021/06/26 08:25:31;;;;;;;4.40;4.05;;;;;;;22.61;53.97;96187.53;5053581;28;20029;-91
2021/06/26 08:27:57;;;;;;;4.65;4.20;;;;;;;22.62;52.90;96194.56;5054007;28;20322;-90
2021/06/26 08:30:23;;;;;;;4.50;4.10;;;;;;;22.55;54.23;96196.00;5052652;28;20024;-91
2021/06/26 08:32:50;;;;;;;4.95;4.45;;;;;;;22.84;52.26;96252.09;5052453;28;20048;-90
2021/06/26 08:35:16;;;;;;;5.10;4.60;;;;;;;22.78;53.00;96225.84;5053522;28;20031;-90
2021/06/26 08:37:47;;;;;;;5.40;4.35;;;;;;;22.77;53.19;96249.28;5053372;28;20120;-90
2021/06/26 08:40:14;;;;;;;5.32;4.80;;;;;;;22.52;52.16;96188.75;5052087;28;20025;-91
2021/06/26 08:42:40;;;;;;;5.65;5.15;;;;;;;22.57;52.86;96215.56;5053417;28;20114;-90
2021/06/26 08:45:09;;;;;;;7.40;6.07;;;;;;;22.72;52.75;96214.94;5053297;28;20108;-91
2021/06/26 08:47:35;;;;;;;5.90;5.40;;;;;;;22.99;51.37;96212.75;5051991;28;20425;-90
2021/06/26 08:50:00;;;;;;;5.47;4.97;;;;;;;22.90;49.88;96211.19;5053167;28;20032;-91
2021/06/26 08:52:26;;;;;;;5.93;5.30;;;;;;;22.58;50.69;96227.34;5053226;28;20036;-90
2021/06/26 08:54:54;;;;;;;5.55;5.15;;;;;;;22.87;52.00;96233.69;5053314;28;20017;-90
2021/06/26 08:57:34;;;;;;;5.30;4.90;;;;;;;22.31;50.38;96197.06;5051867;28;20040;-91
2021/06/26 09:00:01;;;;;;;5.45;4.95;;;;;;;22.49;52.23;96181.56;5053330;28;20348;-90
2021/06/26 09:02:28;;;;;;;8.52;6.60;;;;;;;22.68;53.56;96200.69;5052966;28;20018;-90
2021/06/26 09:04:55;;;;;;;7.00;6.30;;;;;;;22.86;50.42;96229.44;5052905;28;20100;-91
2021/06/26 09:07:33;;;;;;;6.53;6.03;;;;;;;23.13;51.77;96230.00;5053434;28;20414;-91
2021/06/26 09:10:23;;;;;;;7.55;5.28;;;;;;;22.89;50.37;96175.75;5054745;28;20099;-90
2021/06/26 09:12:50;;;;;;;5.97;5.47;;;;;;;23.06;49.20;96189.88;5056944;28;20024;-91
2021/06/26 09:15:28;;;;;;;6.38;5.88;;;;;;;23.72;50.40;96236.41;5056609;28;20088;-91
2021/06/26 09:17:55;;;;;;;7.20;6.60;;;;;;;23.55;50.27;96191.03;5056914;28;20301;-90
2021/06/26 09:20:37;;;;;;;6.93;6.32;;;;;;;23.86;49.16;96206.47;5057996;28;20074;-91
2021/06/26 09:23:54;;;;;;;7.30;6.68;;;;;;;24.00;49.22;96240.34;5055869;28;20333;-91
2021/06/26 09:26:20;;;;;;;7.85;7.05;;;;;;;23.12;48.05;96162.78;5057169;28;20021;-91
2021/06/26 09:28:46;;;;;;;8.10;7.40;;;;;;;23.18;50.75;96191.06;5057006;28;20031;-91
2021/06/26 09:31:16;;;;;;;7.60;7.00;;;;;;;23.81;50.25;96226.81;5056923;28;20480;-91
2021/06/26 09:33:42;;;;;;;7.78;7.05;;;;;;;23.62;49.95;96168.91;5055313;28;20025;-91
2021/06/26 09:36:10;;;;;;;7.93;7.20;;;;;;;23.76;49.20;96155.66;5056694;28;20039;-90
2021/06/26 09:38:53;;;;;;;7.78;7.10;;;;;;;23.70;48.66;96150.28;5056749;28;20423;-91
2021/06/26 09:41:18;;;;;;;6.80;6.20;;;;;;;23.89;48.24;96147.19;5056621;28;20112;-91
2021/06/26 09:43:44;;;;;;;7.68;7.00;;;;;;;24.12;48.16;96177.69;5056774;28;20120;-91
2021/06/26 09:46:12;;;;;;;7.57;6.88;;;;;;;24.07;48.42;96164.00;5056653;28;20126;-91
2021/06/26 09:48:51;;;;;;;7.65;7.05;;;;;;;24.48;49.35;96201.78;5055107;28;20029;-91
2021/06/26 09:51:27;;;;;;;8.10;7.30;;;;;;;24.14;46.93;96152.94;5056461;28;20328;-90
2021/06/26 09:53:59;;;;;;;7.35;6.70;;;;;;;24.20;47.27;96144.44;5055279;28;20187;-91
2021/06/26 09:56:37;;;;;;;7.18;6.57;;;;;;;24.71;45.45;96202.53;5056538;28;20029;-91
2021/06/26 09:59:04;;;;;;;7.03;6.32;;;;;;;24.66;45.36;96167.38;5056372;28;20409;-91
2021/06/26 10:01:31;;;;;;;7.03;6.40;;;;;;;24.89;45.51;96208.25;5055015;28;20063;-91
2021/06/26 10:03:57;;;;;;;7.00;6.40;;;;;;;24.36;46.63;96170.19;5056556;28;20049;-91
2021/06/26 10:06:24;;;;;;;7.07;6.50;;;;;;;24.17;46.90;96156.63;5056200;28;20052;-91
2021/06/26 10:08:50;;;;;;;7.07;6.38;;;;;;;23.74;46.28;96120.16;5055154;28;20063;-90
2021/06/26 10:11:15;;;;;;;6.78;6.18;;;;;;;24.05;46.46;96128.53;5055747;28;20383;-91
2021/06/26 10:13:41;;;;;;;6.45;5.95;;;;;;;24.53;46.86;96145.38;5056047;28;20321;-91
2021/06/26 10:16:07;;;;;;;6.43;5.90;;;;;;;24.92;45.43;96140.47;5056116;28;20048;-91
2021/06/26 10:18:35;;;;;;;5.95;5.45;;;;;;;25.59;43.43;96194.34;5055420;28;20086;-91
2021/06/26 10:21:01;;;;;;;6.38;5.75;;;;;;;25.83;43.08;96189.44;5055825;28;20029;-91
2021/06/26 10:23:32;;;;;;;6.35;5.75;;;;;;;25.54;43.02;96161.22;5055844;28;20021;-90
2021/06/26 10:25:59;;;;;;;6.85;6.03;;;;;;;25.29;42.73;96134.09;5055058;28;20056;-91
2021/06/26 10:28:25;;;;;;;6.57;5.97;;;;;;;25.63;44.04;96148.75;5055741;28;20033;-91
2021/06/26 10:31:03;;;;;;;6.63;5.95;;;;;;;25.48;44.79;96178.09;5055510;28;20036;-91
2021/06/26 10:33:30;;;;;;;6.20;5.70;;;;;;;25.56;44.46;96161.38;5054567;28;20313;-91
2021/06/26 10:35:57;;;;;;;6.93;6.18;;;;;;;25.29;41.83;96163.91;5055924;28;20663;-91
2021/06/26 10:38:23;;;;;;;6.50;5.85;;;;;;;24.89;43.90;96138.84;5055897;28;20025;-91
2021/06/26 10:40:51;;;;;;;6.38;5.80;;;;;;;25.20;41.13;96128.41;5056840;28;20055;-91
2021/06/26 10:43:30;;;;;;;6.38;5.88;;;;;;;25.71;43.75;96171.69;5054354;28;20113;-90
2021/06/26 10:46:15;;;;;;;6.40;5.90;;;;;;;25.68;43.90;96167.28;5056905;28;20020;-91
2021/06/26 10:48:42;;;;;;;6.13;5.53;;;;;;;25.66;41.10;96165.03;5055053;28;20025;-91
2021/06/26 10:51:10;;;;;;;6.13;5.53;;;;;;;25.59;40.79;96138.03;5055823;28;20064;-90
2021/06/26 10:53:38;;;;;;;5.82;5.32;;;;;;;26.13;39.04;96169.06;5055166;28;20025;-91
2021/06/26 10:56:13;;;;;;;5.35;4.85;;;;;;;26.56;41.10;96176.16;5054292;28;20142;-90
2021/06/26 10:58:41;;;;;;;7.60;7.00;;;;;;;26.58;41.34;96120.66;5055416;28;20306;-90
2021/06/26 11:01:23;;;;;;;7.32;6.72;;;;;;;27.04;38.20;96128.53;5055370;28;20369;-90
2021/06/26 11:04:09;;;;;;;6.22;5.72;;;;;;;27.38;40.02;96175.19;5055164;28;20112;-91
2021/06/26 11:06:36;;;;;;;5.90;5.40;;;;;;;27.56;36.89;96161.94;5054310;28;20033;-92
2021/06/26 11:09:05;;;;;;;5.53;5.03;;;;;;;27.53;38.70;96140.03;5054872;28;20031;-90
2021/06/26 11:11:35;;;;;;;5.70;5.10;;;;;;;27.69;35.81;96167.16;5054910;28;20361;-91
2021/06/26 11:14:10;;;;;;;5.38;4.90;;;;;;;27.07;37.43;96143.41;5087700;28;20025;-91
2021/06/26 11:16:37;;;;;;;6.18;5.57;;;;;;;26.66;39.71;96103.13;5054676;28;20029;-91
2021/06/26 11:19:02;;;;;;;5.63;5.13;;;;;;;27.13;37.46;96108.41;5054694;28;20028;-91